Time,TemperatureF,DewpointF,PressureIn,WindDirection,WindDirectionDegrees,WindSpeedMPH,WindSpeedGustMPH,Humidity,HourlyPrecipIn,Conditions,Clouds,dailyrainin,SolarRadiationWatts/m^2,SoftwareType,DateUTC
2013-02-20 00:00:00,10.0,3.7,30.35,NNW,342,10.4,10.4,75,0.00,CLR,,0.00,0.0,WeatherDisplay:10.37,2013-02-20 06:00:00,
2013-02-20 00:05:00,9.9,3.6,30.35,NNW,327,3.5,3.5,75,0.00,RA,,0.00,0.0,WeatherDisplay:10.37,2013-02-20 06:05:00,
2013-02-20 00:10:00,9.9,3.6,30.35,NW,326,9.2,9.2,75,0.00,CLR,,0.00,0.0,WeatherDisplay:10.37,2013-02-20 06:10:00,
2013-02-20 00:15:00,9.9,3.6,30.35,NNW,327,0.0,0.8,75,0.00,RA,,0.00,0.0,WeatherDisplay:10.37,2013-02-20 06:15:00,
2013-02-20 00:20:00,9.6,3.3,30.36,NNW,333,9.0,9.0,75,0.00,CLR,,0.00,0.0,WeatherDisplay:10.37,2013-02-20 06:20:00,
2013-02-20 00:25:00,9.9,3.6,30.35,NNW,327,0.0,0.8,75,0.00,RA,,0.00,0.0,WeatherDisplay:10.37,2013-02-20 06:25:00,
2013-02-20 00:30:00,9.9,3.6,30.35,NNW,327,0.0,0.8,75,0.00,CLR,,0.00,0.0,WeatherDisplay:10.37,2013-02-20 06:30:00,
2013-02-20 00:35:00,9.9,3.6,30.35,NNW,327,0.0,0.8,75,0.00,CLR,,0.00,0.0,WeatherDisplay:10.37,2013-02-20 06:35:00,
2013-02-20 00:40:00,9.9,3.6,30.35,NNW,327,0.0,0.8,75,0.00,CLR,,0.00,0.0,WeatherDisplay:10.37,2013-02-20 06:40:00,
2013-02-20 00:45:00,9.2,2.6,30.37,NW,306,3.5,3.5,74,0.00,CLR,,0.00,0.0,WeatherDisplay:10.37,2013-02-20 06:45:00,
2013-02-20 00:50:00,9.1,2.5,30.37,WNW,285,6.0,6.0,74,0.00,CLR,,0.00,0.0,WeatherDisplay:10.37,2013-02-20 06:50:00,
2013-02-20 00:55:00,9.1,2.5,30.37,NW,323,9.2,9.2,74,0.00,CLR,,0.00,0.0,WeatherDisplay:10.37,2013-02-20 06:55:00,
2013-02-20 01:00:00,9.9,3.6,30.35,NNW,327,0.0,0.8,75,0.00,CLR,,0.00,0.0,WeatherDisplay:10.37,2013-02-20 07:00:00,
2013-02-20 01:05:00,8.9,2.3,30.38,North,360,3.5,3.5,74,0.00,CLR,,0.00,0.0,WeatherDisplay:10.37,2013-02-20 07:05:00,
2013-02-20 01:10:00,8.8,2.2,30.37,NNW,331,4.6,4.6,74,0.00,CLR,,0.00,0.0,WeatherDisplay:10.37,2013-02-20 07:10:00,
2013-02-20 01:15:00,8.7,2.1,30.38,NW,304,5.8,5.8,74,0.00,CLR,,0.00,0.0,WeatherDisplay:10.37,2013-02-20 07:15:00,
2013-02-20 01:20:00,8.7,2.4,30.37,NNW,340,3.5,3.5,75,0.00,CLR,,0.00,0.0,WeatherDisplay:10.37,2013-02-20 07:20:00,
2013-02-20 01:25:00,8.6,2.3,30.38,NW,318,6.9,6.9,75,0.00,CLR,,0.00,0.0,WeatherDisplay:10.37,2013-02-20 07:25:00,
2013-02-20 01:30:00,8.5,2.2,30.38,NW,317,2.3,2.3,75,0.00,CLR,,0.00,0.0,WeatherDisplay:10.37,2013-02-20 07:30:00,
2013-02-20 01:35:00,9.9,3.6,30.35,NNW,327,0.0,0.8,75,0.00,CLR,,0.00,0.0,WeatherDisplay:10.37,2013-02-20 07:35:00,
2013-02-20 01:40:00,9.9,3.6,30.35,NNW,327,0.0,0.8,75,0.00,CLR,,0.00,0.0,WeatherDisplay:10.37,2013-02-20 07:40:00,
2013-02-20 01:45:00,9.9,3.6,30.35,NNW,327,0.0,0.8,75,0.00,CLR,,0.00,0.0,WeatherDisplay:10.37,2013-02-20 07:45:00,
2013-02-20 01:50:00,8.2,1.9,30.39,WNW,296,3.5,3.5,75,0.00,CLR,,0.00,0.0,WeatherDisplay:10.37,2013-02-20 07:50:00,
2013-02-20 01:55:00,8.2,1.9,30.39,WNW,298,4.6,4.6,75,0.00,CLR,,0.00,0.0,WeatherDisplay:10.37,2013-02-20 07:55:00,
2013-02-20 02:00:00,9.9,3.6,30.35,NNW,327,0.0,0.8,75,0.00,CLR,,0.00,0.0,WeatherDisplay:10.37,2013-02-20 08:00:00,
2013-02-20 02:05:00,9.9,3.6,30.35,NNW,327,0.0,0.8,75,0.00,CLR,,0.00,0.0,WeatherDisplay:10.37,2013-02-20 08:05:00,
2013-02-20 02:10:00,9.9,3.6,30.35,NNW,327,0.0,0.8,75,0.00,CLR,,0.00,0.0,WeatherDisplay:10.37,2013-02-20 08:10:00,
2013-02-20 02:15:00,8.0,2.0,30.40,NW,306,5.8,5.8,76,0.00,CLR,,0.00,0.0,WeatherDisplay:10.37,2013-02-20 08:15:00,
2013-02-20 02:20:00,9.9,3.6,30.35,NNW,327,0.0,0.8,75,0.00,CLR,,0.00,0.0,WeatherDisplay:10.37,2013-02-20 08:20:00,
2013-02-20 02:25:00,7.8,1.5,30.40,WNW,300,4.6,4.6,75,0.00,CLR,,0.00,0.0,WeatherDisplay:10.37,2013-02-20 08:25:00,
2013-02-20 02:30:00,9.9,3.6,30.35,NNW,327,0.0,0.8,75,0.00,CLR,,0.00,0.0,WeatherDisplay:10.37,2013-02-20 08:30:00,
2013-02-20 02:36:00,7.8,1.5,30.40,NW,304,3.5,3.5,75,0.00,CLR,,0.00,0.0,WeatherDisplay:10.37,2013-02-20 08:36:00,
2013-02-20 02:41:00,7.7,1.4,30.40,NW,306,3.5,3.5,75,0.00,CLR,,0.00,0.0,WeatherDisplay:10.37,2013-02-20 08:41:00,
2013-02-20 02:46:00,9.9,3.6,30.35,NNW,327,0.0,0.8,75,0.00,CLR,,0.00,0.0,WeatherDisplay:10.37,2013-02-20 08:46:00,
2013-02-20 02:51:00,9.9,3.6,30.35,NNW,327,0.0,0.8,75,0.00,CLR,,0.00,0.0,WeatherDisplay:10.37,2013-02-20 08:51:00,
2013-02-20 02:56:00,9.9,3.6,30.35,NNW,327,0.0,0.8,75,0.00,CLR,,0.00,0.0,WeatherDisplay:10.37,2013-02-20 08:56:00,
2013-02-20 03:01:00,9.9,3.6,30.35,NNW,327,0.0,0.8,75,0.00,CLR,,0.00,0.0,WeatherDisplay:10.37,2013-02-20 09:01:00,
2013-02-20 03:06:00,9.9,3.6,30.35,NNW,327,0.0,0.8,75,0.00,CLR,,0.00,0.0,WeatherDisplay:10.37,2013-02-20 09:06:00,
2013-02-20 03:11:00,7.4,1.1,30.40,WNW,288,3.5,3.5,75,0.00,CLR,,0.00,0.0,WeatherDisplay:10.37,2013-02-20 09:11:00,
2013-02-20 03:16:00,9.9,3.6,30.35,NNW,327,0.0,0.8,75,0.00,CLR,,0.00,0.0,WeatherDisplay:10.37,2013-02-20 09:16:00,
2013-02-20 03:21:00,9.9,3.6,30.35,NNW,327,0.0,0.8,75,0.00,CLR,,0.00,0.0,WeatherDisplay:10.37,2013-02-20 09:21:00,
2013-02-20 03:26:00,9.9,3.6,30.35,NNW,327,0.0,0.8,75,0.00,CLR,,0.00,0.0,WeatherDisplay:10.37,2013-02-20 09:26:00,
2013-02-20 03:31:00,7.4,1.4,30.41,WNW,300,4.6,4.6,76,0.00,CLR,,0.00,0.0,WeatherDisplay:10.37,2013-02-20 09:31:00,
2013-02-20 03:36:00,9.9,3.6,30.35,NNW,327,0.0,0.8,75,0.00,CLR,,0.00,0.0,WeatherDisplay:10.37,2013-02-20 09:36:00,
2013-02-20 03:41:00,7.3,1.3,30.41,WNW,288,5.8,5.8,76,0.00,CLR,,0.00,0.0,WeatherDisplay:10.37,2013-02-20 09:41:00,
2013-02-20 03:46:00,7.3,1.3,30.41,WNW,296,1.2,1.2,76,0.00,CLR,,0.00,0.0,WeatherDisplay:10.37,2013-02-20 09:46:00,
2013-02-20 03:51:00,7.2,1.2,30.42,WNW,294,4.6,4.6,76,0.00,CLR,,0.00,0.0,WeatherDisplay:10.37,2013-02-20 09:51:00,
2013-02-20 03:56:00,7.2,1.2,30.42,WNW,295,10.4,10.4,76,0.00,CLR,,0.00,0.0,WeatherDisplay:10.37,2013-02-20 09:56:00,
2013-02-20 04:01:00,9.9,3.6,30.35,NNW,327,0.0,0.8,75,0.00,CLR,,0.00,0.0,WeatherDisplay:10.37,2013-02-20 10:01:00,
2013-02-20 04:06:00,9.9,3.6,30.35,NNW,327,0.0,0.8,75,0.00,CLR,,0.00,0.0,WeatherDisplay:10.37,2013-02-20 10:06:00,
2013-02-20 04:11:00,9.9,3.6,30.35,NNW,327,0.0,0.8,75,0.00,CLR,,0.00,0.0,WeatherDisplay:10.37,2013-02-20 10:11:00,
2013-02-20 04:16:00,9.9,3.6,30.35,NNW,327,0.0,0.8,75,0.00,CLR,,0.00,0.0,WeatherDisplay:10.37,2013-02-20 10:16:00,
2013-02-20 04:21:00,9.9,3.6,30.35,NNW,327,0.0,0.8,75,0.00,CLR,,0.00,0.0,WeatherDisplay:10.37,2013-02-20 10:21:00,
2013-02-20 04:26:00,7.1,1.1,30.41,NW,314,5.8,5.8,76,0.00,CLR,,0.00,0.0,WeatherDisplay:10.37,2013-02-20 10:26:00,
2013-02-20 04:31:00,9.9,3.6,30.35,NNW,327,0.0,0.8,75,0.00,CLR,,0.00,0.0,WeatherDisplay:10.37,2013-02-20 10:31:00,
2013-02-20 04:36:00,9.9,3.6,30.35,NNW,327,0.0,0.8,75,0.00,CLR,,0.00,0.0,WeatherDisplay:10.37,2013-02-20 10:36:00,
2013-02-20 04:41:00,9.9,3.6,30.35,NNW,327,0.0,0.8,75,0.00,CLR,,0.00,0.0,WeatherDisplay:10.37,2013-02-20 10:41:00,
2013-02-20 04:46:00,9.9,3.6,30.35,NNW,327,0.0,0.8,75,0.00,CLR,,0.00,0.0,WeatherDisplay:10.37,2013-02-20 10:46:00,
2013-02-20 04:51:00,9.9,3.6,30.35,NNW,327,0.0,0.8,75,0.00,CLR,,0.00,0.0,WeatherDisplay:10.37,2013-02-20 10:51:00,
2013-02-20 04:56:00,9.9,3.6,30.35,NNW,327,0.0,0.8,75,0.00,CLR,,0.00,0.0,WeatherDisplay:10.37,2013-02-20 10:56:00,
2013-02-20 05:01:00,9.9,3.6,30.35,NNW,327,0.0,0.8,75,0.00,CLR,,0.00,0.0,WeatherDisplay:10.37,2013-02-20 11:01:00,
2013-02-20 05:06:00,9.9,3.6,30.35,NNW,327,0.0,0.8,75,0.00,CLR,,0.00,0.0,WeatherDisplay:10.37,2013-02-20 11:06:00,
2013-02-20 05:11:00,6.8,0.8,30.42,WNW,295,0.0,0.0,76,0.00,CLR,,0.00,0.0,WeatherDisplay:10.37,2013-02-20 11:11:00,
2013-02-20 05:16:00,6.8,0.8,30.42,WNW,295,0.0,0.0,76,0.00,CLR,,0.00,0.0,WeatherDisplay:10.37,2013-02-20 11:16:00,
2013-02-20 05:21:00,9.9,3.6,30.35,NNW,327,0.0,0.8,75,0.00,CLR,,0.00,0.0,WeatherDisplay:10.37,2013-02-20 11:21:00,
2013-02-20 05:26:00,9.9,3.6,30.35,NNW,327,0.0,0.8,75,0.00,CLR,,0.00,0.0,WeatherDisplay:10.37,2013-02-20 11:26:00,
2013-02-20 05:31:00,9.9,3.6,30.35,NNW,327,0.0,0.8,75,0.00,CLR,,0.00,0.0,WeatherDisplay:10.37,2013-02-20 11:31:00,
2013-02-20 05:36:00,9.9,3.6,30.35,NNW,327,0.0,0.8,75,0.00,CLR,,0.00,0.0,WeatherDisplay:10.37,2013-02-20 11:36:00,
2013-02-20 05:41:00,6.7,1.0,30.42,WNW,294,0.0,0.0,77,0.00,CLR,,0.00,0.0,WeatherDisplay:10.37,2013-02-20 11:41:00,
2013-02-20 05:46:00,9.9,3.6,30.35,NNW,327,0.0,0.8,75,0.00,CLR,,0.00,0.0,WeatherDisplay:10.37,2013-02-20 11:46:00,
2013-02-20 05:51:00,6.7,1.0,30.42,WNW,294,0.0,0.0,77,0.00,CLR,,0.00,0.0,WeatherDisplay:10.37,2013-02-20 11:51:00,
2013-02-20 05:56:00,6.7,1.0,30.42,WNW,294,0.0,0.0,77,0.00,CLR,,0.00,0.0,WeatherDisplay:10.37,2013-02-20 11:56:00,
2013-02-20 06:01:00,6.7,1.0,30.42,WNW,294,0.0,0.0,77,0.00,CLR,,0.00,0.0,WeatherDisplay:10.37,2013-02-20 12:01:00,
2013-02-20 06:06:00,9.9,3.6,30.35,NNW,327,0.0,0.8,75,0.00,CLR,,0.00,0.0,WeatherDisplay:10.37,2013-02-20 12:06:00,
2013-02-20 06:11:00,9.9,3.6,30.35,NNW,327,0.0,0.8,75,0.00,CLR,,0.00,0.0,WeatherDisplay:10.37,2013-02-20 12:11:00,
2013-02-20 06:16:00,9.9,3.6,30.35,NNW,327,0.0,0.8,75,0.00,CLR,,0.00,0.0,WeatherDisplay:10.37,2013-02-20 12:16:00,
2013-02-20 06:21:00,6.6,0.9,30.42,WNW,294,0.0,0.0,77,0.00,OVC,,0.00,0.0,WeatherDisplay:10.37,2013-02-20 12:21:00,
2013-02-20 06:26:00,9.9,3.6,30.35,NNW,327,0.0,0.8,75,0.00,OVC,,0.00,0.0,WeatherDisplay:10.37,2013-02-20 12:26:00,
2013-02-20 06:31:00,6.6,1.2,30.42,NW,308,3.5,3.5,78,0.00,OVC,,0.00,0.0,WeatherDisplay:10.37,2013-02-20 12:31:00,
2013-02-20 06:36:00,6.5,1.1,30.42,NW,310,2.3,2.3,78,0.00,OVC,,0.00,0.0,WeatherDisplay:10.37,2013-02-20 12:36:00,
2013-02-20 06:41:00,6.6,1.2,30.42,NW,310,3.5,3.5,78,0.00,OVC,,0.00,0.0,WeatherDisplay:10.37,2013-02-20 12:41:00,
2013-02-20 06:46:00,6.5,1.1,30.42,NW,310,1.2,1.2,78,0.00,OVC,,0.00,0.0,WeatherDisplay:10.37,2013-02-20 12:46:00,
2013-02-20 06:51:00,6.6,1.2,30.42,NNW,331,5.8,5.8,78,0.00,OVC,,0.00,7.0,WeatherDisplay:10.37,2013-02-20 12:51:00,
2013-02-20 06:56:00,6.6,1.2,30.42,NNW,330,5.8,5.8,78,0.00,CLR,,0.00,9.0,WeatherDisplay:10.37,2013-02-20 12:56:00,
2013-02-20 07:01:00,9.9,3.6,30.35,NNW,327,0.0,0.8,75,0.00,OVC,,0.00,0.0,WeatherDisplay:10.37,2013-02-20 13:01:00,
2013-02-20 07:06:00,9.9,3.6,30.35,NNW,327,0.0,0.8,75,0.00,OVC,,0.00,0.0,WeatherDisplay:10.37,2013-02-20 13:06:00,
2013-02-20 07:11:00,6.7,1.3,30.42,NW,321,6.9,6.9,78,0.00,OVC,,0.00,19.0,WeatherDisplay:10.37,2013-02-20 13:11:00,
2013-02-20 07:16:00,6.8,1.4,30.42,NNW,333,1.2,1.2,78,0.00,OVC,,0.00,30.0,WeatherDisplay:10.37,2013-02-20 13:16:00,
2013-02-20 07:21:00,6.8,1.4,30.43,NNW,335,5.8,5.8,78,0.00,OVC,,0.00,21.0,WeatherDisplay:10.37,2013-02-20 13:21:00,
2013-02-20 07:27:00,6.9,1.5,30.43,NNW,337,3.5,3.5,78,0.00,OVC,,0.00,35.0,WeatherDisplay:10.37,2013-02-20 13:27:00,
2013-02-20 07:32:00,9.9,3.6,30.35,NNW,327,0.0,0.8,75,0.00,OVC,,0.00,0.0,WeatherDisplay:10.37,2013-02-20 13:32:00,
2013-02-20 07:37:00,9.9,3.6,30.35,NNW,327,0.0,0.8,75,0.00,OVC,,0.00,0.0,WeatherDisplay:10.37,2013-02-20 13:37:00,
2013-02-20 07:42:00,7.3,1.9,30.43,NW,319,1.2,1.2,78,0.00,OVC,,0.00,39.0,WeatherDisplay:10.37,2013-02-20 13:42:00,
2013-02-20 07:47:00,9.9,3.6,30.35,NNW,327,0.0,0.8,75,0.00,OVC,,0.00,0.0,WeatherDisplay:10.37,2013-02-20 13:47:00,
2013-02-20 07:52:00,7.6,1.9,30.43,NNW,345,5.8,5.8,77,0.00,OVC,,0.00,35.0,WeatherDisplay:10.37,2013-02-20 13:52:00,
2013-02-20 07:57:00,7.8,2.1,30.44,NNW,336,4.0,4.0,77,0.00,OVC,,0.00,58.0,WeatherDisplay:10.37,2013-02-20 13:57:00,
2013-02-20 08:02:00,8.0,2.3,30.45,WNW,296,6.9,6.9,77,0.00,OVC,,0.00,93.0,WeatherDisplay:10.37,2013-02-20 14:02:00,
2013-02-20 08:07:00,8.3,2.6,30.45,NW,311,3.5,3.5,77,0.00,SCT,,0.00,167.0,WeatherDisplay:10.37,2013-02-20 14:07:00,
2013-02-20 08:12:00,8.5,2.5,30.45,NW,325,3.5,3.5,76,0.00,BKN,,0.00,146.0,WeatherDisplay:10.37,2013-02-20 14:12:00,
2013-02-20 08:17:00,9.9,3.6,30.35,NNW,327,0.0,0.8,75,0.00,OVC,,0.00,0.0,WeatherDisplay:10.37,2013-02-20 14:17:00,
2013-02-20 08:22:00,9.9,3.6,30.35,NNW,327,0.0,0.8,75,0.00,OVC,,0.00,0.0,WeatherDisplay:10.37,2013-02-20 14:22:00,
2013-02-20 08:27:00,9.2,3.2,30.45,NNW,333,3.5,3.5,76,0.00,OVC,,0.00,127.0,WeatherDisplay:10.37,2013-02-20 14:27:00,
2013-02-20 08:32:00,9.2,3.2,30.45,NNW,333,1.2,1.2,76,0.00,OVC,,0.00,127.0,WeatherDisplay:10.37,2013-02-20 14:32:00,
2013-02-20 08:37:00,9.7,3.4,30.45,NNW,333,0.0,0.2,75,0.00,OVC,,0.00,44.0,WeatherDisplay:10.37,2013-02-20 14:37:00,
2013-02-20 08:42:00,9.2,3.2,30.45,NNW,333,1.2,1.2,76,0.00,OVC,,0.00,127.0,WeatherDisplay:10.37,2013-02-20 14:42:00,
2013-02-20 08:47:00,9.2,3.2,30.45,NNW,333,1.2,1.2,76,0.00,OVC,,0.00,127.0,WeatherDisplay:10.37,2013-02-20 14:47:00,
2013-02-20 08:52:00,10.4,3.8,30.44,NW,311,4.6,4.6,74,0.00,OVC,,0.00,102.0,WeatherDisplay:10.37,2013-02-20 14:52:00,
2013-02-20 08:57:00,9.2,3.2,30.45,NNW,333,1.2,1.2,76,0.00,OVC,,0.00,127.0,WeatherDisplay:10.37,2013-02-20 14:57:00,
2013-02-20 09:02:00,9.2,3.2,30.45,NNW,333,1.2,1.2,76,0.00,OVC,,0.00,127.0,WeatherDisplay:10.37,2013-02-20 15:02:00,
2013-02-20 09:07:00,11.1,4.1,30.45,NNW,334,2.3,2.3,73,0.00,BKN,,0.00,214.0,WeatherDisplay:10.37,2013-02-20 15:07:00,
2013-02-20 09:12:00,9.2,3.2,30.45,NNW,333,1.2,1.2,76,0.00,OVC,,0.00,127.0,WeatherDisplay:10.37,2013-02-20 15:12:00,
2013-02-20 09:17:00,11.7,4.7,30.45,NNW,333,1.2,1.2,73,0.00,BKN,,0.00,248.0,WeatherDisplay:10.37,2013-02-20 15:17:00,
2013-02-20 09:22:00,12.1,5.1,30.46,NW,317,3.5,3.5,73,0.00,BKN,,0.00,258.0,WeatherDisplay:10.37,2013-02-20 15:22:00,
2013-02-20 09:28:00,12.5,5.5,30.46,NW,317,3.5,3.5,73,0.00,BKN,,0.00,234.0,WeatherDisplay:10.37,2013-02-20 15:28:00,
2013-02-20 09:33:00,11.7,4.7,30.45,NNW,333,0.0,0.1,73,0.00,BKN,,0.00,248.0,WeatherDisplay:10.37,2013-02-20 15:33:00,
2013-02-20 09:38:00,11.7,4.7,30.45,NNW,333,0.0,0.1,73,0.00,BKN,,0.00,248.0,WeatherDisplay:10.37,2013-02-20 15:38:00,
2013-02-20 09:44:00,13.2,5.9,30.46,NW,318,3.5,3.5,72,0.00,SCT,,0.00,325.0,WeatherDisplay:10.37,2013-02-20 15:44:00,
2013-02-20 09:49:00,13.7,6.3,30.46,NW,317,3.0,3.0,72,0.00,SCT,,0.00,485.0,WeatherDisplay:10.37,2013-02-20 15:49:00,
2013-02-20 09:54:00,11.7,4.7,30.45,NNW,333,0.0,0.1,73,0.00,BKN,,0.00,248.0,WeatherDisplay:10.37,2013-02-20 15:54:00,
2013-02-20 09:59:00,14.4,6.7,30.45,NW,321,4.6,4.6,71,0.00,CLR,,0.00,571.0,WeatherDisplay:10.37,2013-02-20 15:59:00,
2013-02-20 10:04:00,14.7,7.0,30.46,NW,323,0.0,0.0,71,0.00,CLR,,0.00,585.0,WeatherDisplay:10.37,2013-02-20 16:04:00,
2013-02-20 10:09:00,11.7,4.7,30.45,NNW,333,0.0,0.1,73,0.00,BKN,,0.00,248.0,WeatherDisplay:10.37,2013-02-20 16:09:00,
2013-02-20 10:14:00,11.7,4.7,30.45,NNW,333,0.0,0.1,73,0.00,BKN,,0.00,248.0,WeatherDisplay:10.37,2013-02-20 16:14:00,
2013-02-20 10:19:00,15.8,8.1,30.46,NW,325,3.5,3.5,71,0.00,CLR,,0.00,617.0,WeatherDisplay:10.37,2013-02-20 16:19:00,
2013-02-20 10:24:00,16.4,8.6,30.46,NW,325,3.5,3.5,71,0.00,CLR,,0.00,626.0,WeatherDisplay:10.37,2013-02-20 16:24:00,
2013-02-20 10:29:00,17.0,8.9,30.46,NW,325,3.5,3.5,70,0.00,CLR,,0.00,638.0,WeatherDisplay:10.37,2013-02-20 16:29:00,
2013-02-20 10:34:00,11.7,4.7,30.45,NNW,333,0.0,0.1,73,0.00,OVC,,0.00,248.0,WeatherDisplay:10.37,2013-02-20 16:34:00,
2013-02-20 10:39:00,11.7,4.7,30.45,NNW,333,0.0,0.1,73,0.00,OVC,,0.00,248.0,WeatherDisplay:10.37,2013-02-20 16:39:00,
2013-02-20 10:44:00,18.0,9.2,30.45,NNW,331,6.9,6.9,68,0.00,CLR,,0.00,654.0,WeatherDisplay:10.37,2013-02-20 16:44:00,
2013-02-20 10:49:00,11.7,4.7,30.45,NNW,333,0.0,0.1,73,0.00,OVC,,0.00,248.0,WeatherDisplay:10.37,2013-02-20 16:49:00,
2013-02-20 10:54:00,18.1,9.3,30.44,North,350,3.5,3.5,68,0.00,CLR,,0.00,680.0,WeatherDisplay:10.37,2013-02-20 16:54:00,
2013-02-20 10:59:00,11.7,4.7,30.45,NNW,333,0.0,0.1,73,0.00,OVC,,0.00,248.0,WeatherDisplay:10.37,2013-02-20 16:59:00,
2013-02-20 11:04:00,18.6,9.5,30.44,North,355,3.5,3.5,67,0.00,CLR,,0.00,689.0,WeatherDisplay:10.37,2013-02-20 17:04:00,
2013-02-20 11:09:00,11.7,4.7,30.45,NNW,333,0.0,0.1,73,0.00,OVC,,0.00,248.0,WeatherDisplay:10.37,2013-02-20 17:09:00,
2013-02-20 11:14:00,11.7,4.7,30.45,NNW,333,0.0,0.1,73,0.00,OVC,,0.00,248.0,WeatherDisplay:10.37,2013-02-20 17:14:00,
2013-02-20 11:19:00,19.4,10.2,30.44,NNW,344,3.5,3.5,67,0.00,CLR,,0.00,701.0,WeatherDisplay:10.37,2013-02-20 17:19:00,
2013-02-20 11:24:00,11.7,4.7,30.45,NNW,333,0.0,0.1,73,0.00,OVC,,0.00,248.0,WeatherDisplay:10.37,2013-02-20 17:24:00,
2013-02-20 11:29:00,11.7,4.7,30.45,NNW,333,0.0,0.1,73,0.00,OVC,,0.00,248.0,WeatherDisplay:10.37,2013-02-20 17:29:00,
2013-02-20 11:34:00,11.7,4.7,30.45,NNW,333,0.0,0.1,73,0.00,OVC,,0.00,248.0,WeatherDisplay:10.37,2013-02-20 17:34:00,
2013-02-20 11:39:00,20.1,10.9,30.47,NW,314,1.2,0.0,67,0.00,CLR,,0.00,712.0,WeatherDisplay:10.37,2013-02-20 17:39:00,
2013-02-20 11:44:00,20.5,11.3,30.47,NW,315,2.3,0.0,67,0.00,CLR,,0.00,710.0,WeatherDisplay:10.37,2013-02-20 17:44:00,
2013-02-20 11:49:00,11.7,4.7,30.45,NNW,333,0.0,0.1,73,0.00,OVC,,0.00,248.0,WeatherDisplay:10.37,2013-02-20 17:49:00,
2013-02-20 11:54:00,20.9,11.7,30.48,WNW,300,5.8,5.8,67,0.00,CLR,,0.00,721.0,WeatherDisplay:10.37,2013-02-20 17:54:00,
2013-02-20 11:59:00,11.7,4.7,30.45,NNW,333,0.0,0.1,73,0.00,OVC,,0.00,248.0,WeatherDisplay:10.37,2013-02-20 17:59:00,
2013-02-20 12:04:00,21.3,12.0,30.47,WNW,291,4.6,4.6,67,0.00,CLR,,0.00,721.0,WeatherDisplay:10.37,2013-02-20 18:04:00,
2013-02-20 12:09:00,11.7,4.7,30.45,NNW,333,0.0,0.1,73,0.00,OVC,,0.00,248.0,WeatherDisplay:10.37,2013-02-20 18:09:00,
2013-02-20 12:14:00,21.7,12.1,30.47,WNW,292,5.8,5.8,66,0.00,CLR,,0.00,724.0,WeatherDisplay:10.37,2013-02-20 18:14:00,
2013-02-20 12:19:00,22.1,12.5,30.47,NW,306,3.5,3.5,66,0.00,CLR,,0.00,729.0,WeatherDisplay:10.37,2013-02-20 18:19:00,
2013-02-20 12:24:00,22.5,12.5,30.47,SW,223,4.0,4.0,65,0.00,CLR,,0.00,715.0,WeatherDisplay:10.37,2013-02-20 18:24:00,
2013-02-20 12:29:00,11.7,4.7,30.45,NNW,333,0.0,0.1,73,0.00,OVC,,0.00,248.0,WeatherDisplay:10.37,2013-02-20 18:29:00,
2013-02-20 12:34:00,11.7,4.7,30.45,NNW,333,0.0,0.1,73,0.00,OVC,,0.00,248.0,WeatherDisplay:10.37,2013-02-20 18:34:00,
2013-02-20 12:39:00,11.7,4.7,30.45,NNW,333,0.0,0.1,73,0.00,OVC,,0.00,248.0,WeatherDisplay:10.37,2013-02-20 18:39:00,
2013-02-20 12:44:00,22.3,12.3,30.47,West,273,4.6,4.6,65,0.00,CLR,,0.00,710.0,WeatherDisplay:10.37,2013-02-20 18:44:00,
2013-02-20 12:49:00,22.7,13.0,30.46,WNW,284,4.6,4.6,66,0.00,CLR,,0.00,705.0,WeatherDisplay:10.37,2013-02-20 18:49:00,
2013-02-20 12:54:00,11.7,4.7,30.45,NNW,333,0.0,0.1,73,0.00,OVC,,0.00,248.0,WeatherDisplay:10.37,2013-02-20 18:54:00,
2013-02-20 12:59:00,23.5,13.5,30.46,West,277,9.2,9.2,65,0.00,FEW,,0.00,642.0,WeatherDisplay:10.37,2013-02-20 18:59:00,
2013-02-20 13:04:00,11.7,4.7,30.45,NNW,333,0.0,0.1,73,0.00,OVC,,0.00,248.0,WeatherDisplay:10.37,2013-02-20 19:04:00,
2013-02-20 13:09:00,23.1,12.4,30.45,WNW,288,6.9,6.9,63,0.00,FEW,,0.00,635.0,WeatherDisplay:10.37,2013-02-20 19:09:00,
2013-02-20 13:14:00,23.1,12.7,30.44,WNW,289,8.1,8.1,64,0.00,FEW,,0.00,598.0,WeatherDisplay:10.37,2013-02-20 19:14:00,
2013-02-20 13:19:00,11.7,4.7,30.45,NNW,333,0.0,0.1,73,0.00,OVC,,0.00,248.0,WeatherDisplay:10.37,2013-02-20 19:19:00,
2013-02-20 13:24:00,11.7,4.7,30.45,NNW,333,0.0,0.1,73,0.00,OVC,,0.00,248.0,WeatherDisplay:10.37,2013-02-20 19:24:00,
2013-02-20 13:29:00,23.9,13.5,30.43,WNW,294,3.5,3.5,64,0.00,FEW,,0.00,555.0,WeatherDisplay:10.37,2013-02-20 19:29:00,
2013-02-20 13:34:00,11.7,4.7,30.45,NNW,333,0.0,0.1,73,0.00,OVC,,0.00,248.0,WeatherDisplay:10.37,2013-02-20 19:34:00,
2013-02-20 13:39:00,11.7,4.7,30.45,NNW,333,0.0,0.1,73,0.00,OVC,,0.00,248.0,WeatherDisplay:10.37,2013-02-20 19:39:00,
2013-02-20 13:44:00,11.7,4.7,30.45,NNW,333,0.0,0.1,73,0.00,OVC,,0.00,248.0,WeatherDisplay:10.37,2013-02-20 19:44:00,
2013-02-20 13:49:00,11.7,4.7,30.45,NNW,333,0.0,0.1,73,0.00,OVC,,0.00,248.0,WeatherDisplay:10.37,2013-02-20 19:49:00,
2013-02-20 13:54:00,11.7,4.7,30.45,NNW,333,0.0,0.1,73,0.00,OVC,,0.00,248.0,WeatherDisplay:10.37,2013-02-20 19:54:00,
2013-02-20 13:59:00,11.7,4.7,30.45,NNW,333,0.0,0.1,73,0.00,OVC,,0.00,248.0,WeatherDisplay:10.37,2013-02-20 19:59:00,
2013-02-20 14:04:00,25.4,15.3,30.41,NNE,26,5.8,5.8,65,0.00,FEW,,0.00,543.0,WeatherDisplay:10.37,2013-02-20 20:04:00,
2013-02-20 14:09:00,25.5,15.4,30.41,NNW,340,6.9,6.9,65,0.00,SCT,,0.00,519.0,WeatherDisplay:10.37,2013-02-20 20:09:00,
2013-02-20 14:14:00,25.4,15.3,30.41,NNW,342,4.6,4.6,65,0.00,SCT,,0.00,457.0,WeatherDisplay:10.37,2013-02-20 20:14:00,
2013-02-20 14:19:00,11.7,4.7,30.45,NNW,333,0.0,0.1,73,0.00,BKN,,0.00,248.0,WeatherDisplay:10.37,2013-02-20 20:19:00,
2013-02-20 14:24:00,11.7,4.7,30.45,NNW,333,0.0,0.1,73,0.00,BKN,,0.00,248.0,WeatherDisplay:10.37,2013-02-20 20:24:00,
2013-02-20 14:29:00,11.7,4.7,30.45,NNW,333,0.0,0.1,73,0.00,BKN,,0.00,248.0,WeatherDisplay:10.37,2013-02-20 20:29:00,
2013-02-20 14:34:00,11.7,4.7,30.45,NNW,333,0.0,0.1,73,0.00,BKN,,0.00,248.0,WeatherDisplay:10.37,2013-02-20 20:34:00,
2013-02-20 14:39:00,11.7,4.7,30.45,NNW,333,0.0,0.1,73,0.00,BKN,,0.00,248.0,WeatherDisplay:10.37,2013-02-20 20:39:00,
2013-02-20 14:44:00,25.2,16.1,30.39,NW,320,3.5,3.5,68,0.00,SCT,,0.00,350.0,WeatherDisplay:10.37,2013-02-20 20:44:00,
2013-02-20 14:49:00,25.3,15.9,30.39,NW,320,2.3,0.0,67,0.00,BKN,,0.00,325.0,WeatherDisplay:10.37,2013-02-20 20:49:00,
2013-02-20 14:54:00,11.7,4.7,30.45,NNW,333,0.0,0.1,73,0.00,BKN,,0.00,248.0,WeatherDisplay:10.37,2013-02-20 20:54:00,
2013-02-20 14:59:00,25.4,16.3,30.39,North,360,0.0,1.2,68,0.00,SCT,,0.00,297.0,WeatherDisplay:10.37,2013-02-20 20:59:00,
2013-02-20 15:04:00,11.7,4.7,30.45,NNW,333,0.0,0.1,73,0.00,BKN,,0.00,248.0,WeatherDisplay:10.37,2013-02-20 21:04:00,
2013-02-20 15:09:00,11.7,4.7,30.45,NNW,333,0.0,0.1,73,0.00,BKN,,0.00,248.0,WeatherDisplay:10.37,2013-02-20 21:09:00,
2013-02-20 15:14:00,11.7,4.7,30.45,NNW,333,0.0,0.1,73,0.00,BKN,,0.00,248.0,WeatherDisplay:10.37,2013-02-20 21:14:00,
2013-02-20 15:19:00,11.7,4.7,30.45,NNW,333,0.0,0.1,73,0.00,BKN,,0.00,248.0,WeatherDisplay:10.37,2013-02-20 21:19:00,
2013-02-20 15:24:00,25.7,16.6,30.39,NNW,338,3.5,3.5,68,0.00,SCT,,0.00,311.0,WeatherDisplay:10.37,2013-02-20 21:24:00,
2013-02-20 15:30:00,11.7,4.7,30.45,NNW,333,0.0,0.1,73,0.00,BKN,,0.00,248.0,WeatherDisplay:10.37,2013-02-20 21:30:00,
2013-02-20 15:35:00,11.7,4.7,30.45,NNW,333,0.0,0.1,73,0.00,BKN,,0.00,248.0,WeatherDisplay:10.37,2013-02-20 21:35:00,
2013-02-20 15:40:00,25.8,16.0,30.39,NNW,348,4.6,4.6,66,0.00,BKN,,0.00,216.0,WeatherDisplay:10.37,2013-02-20 21:40:00,
2013-02-20 15:45:00,25.7,15.9,30.39,NNW,346,3.5,3.5,66,0.00,BKN,,0.00,206.0,WeatherDisplay:10.37,2013-02-20 21:45:00,
2013-02-20 15:50:00,25.5,15.7,30.39,NNE,22,3.5,3.5,66,0.00,BKN,,0.00,202.0,WeatherDisplay:10.37,2013-02-20 21:50:00,
2013-02-20 15:55:00,25.3,15.9,30.39,NNE,22,2.3,2.3,67,0.00,BKN,,0.00,181.0,WeatherDisplay:10.37,2013-02-20 21:55:00,
2013-02-20 16:00:00,11.7,4.7,30.45,NNW,333,0.0,0.1,73,0.00,SCT,,0.00,248.0,WeatherDisplay:10.37,2013-02-20 22:00:00,
2013-02-20 16:05:00,11.7,4.7,30.45,NNW,333,0.0,0.1,73,0.00,SCT,,0.00,248.0,WeatherDisplay:10.37,2013-02-20 22:05:00,
2013-02-20 16:10:00,11.7,4.7,30.45,NNW,333,0.0,0.1,73,0.00,SCT,,0.00,248.0,WeatherDisplay:10.37,2013-02-20 22:10:00,
2013-02-20 16:15:00,11.7,4.7,30.45,NNW,333,0.0,0.1,73,0.00,SCT,,0.00,248.0,WeatherDisplay:10.37,2013-02-20 22:15:00,
2013-02-20 16:20:00,11.7,4.7,30.45,NNW,333,0.0,0.1,73,0.00,FEW,,0.00,248.0,WeatherDisplay:10.37,2013-02-20 22:20:00,
2013-02-20 16:25:00,11.7,4.7,30.45,NNW,333,0.0,0.1,73,0.00,FEW,,0.00,248.0,WeatherDisplay:10.37,2013-02-20 22:25:00,
2013-02-20 16:30:00,25.3,16.2,30.39,NNE,22,0.0,0.0,68,0.00,BKN,,0.00,127.0,WeatherDisplay:10.37,2013-02-20 22:30:00,
2013-02-20 16:35:00,11.7,4.7,30.45,NNW,333,0.0,0.1,73,0.00,CLR,,0.00,248.0,WeatherDisplay:10.37,2013-02-20 22:35:00,
2013-02-20 16:40:00,25.4,16.6,30.39,NNE,22,0.0,0.0,69,0.00,BKN,,0.00,111.0,WeatherDisplay:10.37,2013-02-20 22:40:00,
2013-02-20 16:45:00,25.6,16.8,30.40,NNE,23,0.0,0.0,69,0.00,BKN,,0.00,97.0,WeatherDisplay:10.37,2013-02-20 22:45:00,
2013-02-20 16:50:00,11.7,4.7,30.45,NNW,333,0.0,0.1,73,0.00,CLR,,0.00,248.0,WeatherDisplay:10.37,2013-02-20 22:50:00,
2013-02-20 16:55:00,11.7,4.7,30.45,NNW,333,0.0,0.1,73,0.00,CLR,,0.00,248.0,WeatherDisplay:10.37,2013-02-20 22:55:00,
2013-02-20 17:00:00,11.7,4.7,30.45,NNW,333,0.0,0.1,73,0.00,CLR,,0.00,248.0,WeatherDisplay:10.37,2013-02-20 23:00:00,
2013-02-20 17:05:00,11.7,4.7,30.45,NNW,333,0.0,0.1,73,0.00,CLR,,0.00,248.0,WeatherDisplay:10.37,2013-02-20 23:05:00,
2013-02-20 17:10:00,25.2,16.5,30.40,NNE,23,0.0,0.0,69,0.00,OVC,,0.00,39.0,WeatherDisplay:10.37,2013-02-20 23:10:00,
2013-02-20 17:15:00,25.1,16.4,30.40,NNE,22,0.0,0.0,69,0.00,OVC,,0.00,32.0,WeatherDisplay:10.37,2013-02-20 23:15:00,
2013-02-20 17:20:00,24.9,16.2,30.40,NNE,23,0.0,0.0,69,0.00,OVC,,0.00,26.0,WeatherDisplay:10.37,2013-02-20 23:20:00,
2013-02-20 17:25:00,24.8,16.1,30.40,NNE,23,0.0,0.0,69,0.00,OVC,,0.00,19.0,WeatherDisplay:10.37,2013-02-20 23:25:00,
2013-02-20 17:30:00,24.8,16.4,30.40,NNE,23,0.0,0.0,70,0.00,OVC,,0.00,12.0,WeatherDisplay:10.37,2013-02-20 23:30:00,
2013-02-20 17:35:00,11.7,4.7,30.45,NNW,333,0.0,0.1,73,0.00,CLR,,0.00,248.0,WeatherDisplay:10.37,2013-02-20 23:35:00,
2013-02-20 17:40:00,24.5,16.1,30.40,NNE,23,0.0,0.0,70,0.00,OVC,,0.00,0.0,WeatherDisplay:10.37,2013-02-20 23:40:00,
2013-02-20 17:45:00,11.7,4.7,30.45,NNW,333,0.0,0.1,73,0.00,OVC,,0.00,248.0,WeatherDisplay:10.37,2013-02-20 23:45:00,
2013-02-20 17:50:00,11.7,4.7,30.45,NNW,333,0.0,0.1,73,0.00,OVC,,0.00,248.0,WeatherDisplay:10.37,2013-02-20 23:50:00,
2013-02-20 17:55:00,11.7,4.7,30.45,NNW,333,0.0,0.1,73,0.00,OVC,,0.00,248.0,WeatherDisplay:10.37,2013-02-20 23:55:00,
2013-02-20 18:00:00,24.0,16.3,30.39,NNE,22,0.0,0.0,72,0.00,OVC,,0.00,0.0,WeatherDisplay:10.37,2013-02-21 00:00:00,
2013-02-20 18:05:00,11.7,4.7,30.45,NNW,333,0.0,0.1,73,0.00,CLR,,0.00,0.0,WeatherDisplay:10.37,2013-02-21 00:05:00,
2013-02-20 18:10:00,23.7,16.0,30.39,NNE,22,0.0,0.0,72,0.00,CLR,,0.00,0.0,WeatherDisplay:10.37,2013-02-21 00:10:00,
2013-02-20 18:15:00,23.4,16.0,30.39,NNE,22,0.0,0.0,73,0.00,CLR,,0.00,0.0,WeatherDisplay:10.37,2013-02-21 00:15:00,
2013-02-20 18:20:00,23.1,15.7,30.39,NNE,22,0.0,0.0,73,0.00,CLR,,0.00,0.0,WeatherDisplay:10.37,2013-02-21 00:20:00,
2013-02-20 18:25:00,22.9,15.5,30.39,NNE,23,0.0,0.0,73,0.00,CLR,,0.00,0.0,WeatherDisplay:10.37,2013-02-21 00:25:00,
2013-02-20 18:30:00,23.4,16.0,30.39,NNE,22,0.0,0.0,73,0.00,CLR,,0.00,0.0,WeatherDisplay:10.37,2013-02-21 00:30:00,
2013-02-20 18:35:00,23.4,16.0,30.39,NNE,22,0.0,0.0,73,0.00,CLR,,0.00,0.0,WeatherDisplay:10.37,2013-02-21 00:35:00,
2013-02-20 18:40:00,22.1,15.1,30.39,NNE,22,0.0,0.0,74,0.00,CLR,,0.00,0.0,WeatherDisplay:10.37,2013-02-21 00:40:00,
2013-02-20 18:45:00,23.4,16.0,30.39,NNE,22,0.0,0.0,73,0.00,CLR,,0.00,0.0,WeatherDisplay:10.37,2013-02-21 00:45:00,
2013-02-20 18:50:00,23.4,16.0,30.39,NNE,22,0.0,0.0,73,0.00,CLR,,0.00,0.0,WeatherDisplay:10.37,2013-02-21 00:50:00,
2013-02-20 18:55:00,23.4,16.0,30.39,NNE,22,0.0,0.0,73,0.00,CLR,,0.00,0.0,WeatherDisplay:10.37,2013-02-21 00:55:00,
2013-02-20 19:00:00,21.4,15.0,30.40,NNE,23,0.0,0.0,76,0.00,CLR,,0.00,0.0,WeatherDisplay:10.37,2013-02-21 01:00:00,
2013-02-20 19:05:00,21.2,14.8,30.39,NNE,23,0.0,0.0,76,0.00,CLR,,0.00,0.0,WeatherDisplay:10.37,2013-02-21 01:05:00,
2013-02-20 19:10:00,21.5,15.1,30.40,NNE,22,0.0,0.0,76,0.00,CLR,,0.00,0.0,WeatherDisplay:10.37,2013-02-21 01:10:00,
2013-02-20 19:15:00,21.5,15.1,30.40,NNE,22,0.0,0.0,76,0.00,CLR,,0.00,0.0,WeatherDisplay:10.37,2013-02-21 01:15:00,
2013-02-20 19:20:00,21.5,15.1,30.40,NNE,22,0.0,0.0,76,0.00,CLR,,0.00,0.0,WeatherDisplay:10.37,2013-02-21 01:20:00,
2013-02-20 19:25:00,21.5,15.1,30.40,NNE,22,0.0,0.0,76,0.00,CLR,,0.00,0.0,WeatherDisplay:10.37,2013-02-21 01:25:00,
2013-02-20 19:30:00,21.5,15.1,30.40,NNE,22,0.0,0.0,76,0.00,CLR,,0.00,0.0,WeatherDisplay:10.37,2013-02-21 01:30:00,
2013-02-20 19:35:00,21.5,15.1,30.40,NNE,22,0.0,0.0,76,0.00,CLR,,0.00,0.0,WeatherDisplay:10.37,2013-02-21 01:35:00,
2013-02-20 19:40:00,21.5,15.1,30.40,NNE,22,0.0,0.0,76,0.00,CLR,,0.00,0.0,WeatherDisplay:10.37,2013-02-21 01:40:00,
2013-02-20 19:45:00,19.9,14.4,30.39,NNE,23,0.0,0.0,79,0.00,CLR,,0.00,0.0,WeatherDisplay:10.37,2013-02-21 01:45:00,
2013-02-20 19:50:00,21.5,15.1,30.40,NNE,22,0.0,0.0,76,0.00,CLR,,0.00,0.0,WeatherDisplay:10.37,2013-02-21 01:50:00,
2013-02-20 19:55:00,21.5,15.1,30.40,NNE,22,0.0,0.0,76,0.00,CLR,,0.00,0.0,WeatherDisplay:10.37,2013-02-21 01:55:00,
2013-02-20 20:00:00,19.5,14.3,30.39,NNE,23,0.0,0.0,80,0.00,CLR,,0.00,0.0,WeatherDisplay:10.37,2013-02-21 02:00:00,
2013-02-20 20:05:00,21.5,15.1,30.40,NNE,22,0.0,0.0,76,0.00,CLR,,0.00,0.0,WeatherDisplay:10.37,2013-02-21 02:05:00,
2013-02-20 20:10:00,21.5,15.1,30.40,NNE,22,0.0,0.0,76,0.00,CLR,,0.00,0.0,WeatherDisplay:10.37,2013-02-21 02:10:00,
2013-02-20 20:15:00,21.5,15.1,30.40,NNE,22,0.0,0.0,76,0.00,CLR,,0.00,0.0,WeatherDisplay:10.37,2013-02-21 02:15:00,
2013-02-20 20:20:00,21.5,15.1,30.40,NNE,22,0.0,0.0,76,0.00,CLR,,0.00,0.0,WeatherDisplay:10.37,2013-02-21 02:20:00,
2013-02-20 20:25:00,18.9,14.3,30.39,NNE,23,0.0,0.0,82,0.00,CLR,,0.00,0.0,WeatherDisplay:10.37,2013-02-21 02:25:00,
2013-02-20 20:30:00,21.5,15.1,30.40,NNE,22,0.0,0.0,76,0.00,CLR,,0.00,0.0,WeatherDisplay:10.37,2013-02-21 02:30:00,
2013-02-20 20:35:00,21.5,15.1,30.40,NNE,22,0.0,0.0,76,0.00,CLR,,0.00,0.0,WeatherDisplay:10.37,2013-02-21 02:35:00,
2013-02-20 20:40:00,21.5,15.1,30.40,NNE,22,0.0,0.0,76,0.00,CLR,,0.00,0.0,WeatherDisplay:10.37,2013-02-21 02:40:00,
2013-02-20 20:45:00,21.5,15.1,30.40,NNE,22,0.0,0.0,76,0.00,CLR,,0.00,0.0,WeatherDisplay:10.37,2013-02-21 02:45:00,
2013-02-20 20:50:00,21.5,15.1,30.40,NNE,22,0.0,0.0,76,0.00,CLR,,0.00,0.0,WeatherDisplay:10.37,2013-02-21 02:50:00,
2013-02-20 20:55:00,18.6,14.6,30.40,ENE,61,2.3,2.3,84,0.00,CLR,,0.00,0.0,WeatherDisplay:10.37,2013-02-21 02:55:00,
2013-02-20 21:00:00,18.6,14.6,30.40,ENE,61,4.6,4.6,84,0.00,CLR,,0.00,0.0,WeatherDisplay:10.37,2013-02-21 03:00:00,
2013-02-20 21:06:00,21.5,15.1,30.40,NNE,22,0.0,0.0,76,0.00,CLR,,0.00,0.0,WeatherDisplay:10.37,2013-02-21 03:06:00,
2013-02-20 21:11:00,21.5,15.1,30.40,NNE,22,0.0,0.0,76,0.00,CLR,,0.00,0.0,WeatherDisplay:10.37,2013-02-21 03:11:00,
2013-02-20 21:16:00,18.8,14.5,30.39,ENE,76,5.8,5.8,83,0.00,CLR,,0.00,0.0,WeatherDisplay:10.37,2013-02-21 03:16:00,
2013-02-20 21:21:00,18.9,14.3,30.40,ENE,75,1.2,1.2,82,0.00,CLR,,0.00,0.0,WeatherDisplay:10.37,2013-02-21 03:21:00,
2013-02-20 21:26:00,18.9,14.3,30.40,ENE,76,0.0,0.0,82,0.00,CLR,,0.00,0.0,WeatherDisplay:10.37,2013-02-21 03:26:00,
2013-02-20 21:31:00,21.5,15.1,30.40,NNE,22,0.0,0.0,76,0.00,CLR,,0.00,0.0,WeatherDisplay:10.37,2013-02-21 03:31:00,
2013-02-20 21:36:00,18.9,14.0,30.41,ENE,75,0.0,0.0,81,0.00,CLR,,0.00,0.0,WeatherDisplay:10.37,2013-02-21 03:36:00,
2013-02-20 21:41:00,18.9,14.0,30.41,ENE,76,2.3,2.3,81,0.00,CLR,,0.00,0.0,WeatherDisplay:10.37,2013-02-21 03:41:00,
2013-02-20 21:46:00,18.9,14.0,30.42,ENE,76,0.0,0.0,81,0.00,CLR,,0.00,0.0,WeatherDisplay:10.37,2013-02-21 03:46:00,
2013-02-20 21:51:00,18.9,14.0,30.42,ENE,75,0.0,0.0,81,0.00,CLR,,0.00,0.0,WeatherDisplay:10.37,2013-02-21 03:51:00,
2013-02-20 21:56:00,18.9,13.7,30.42,ENE,75,0.0,0.0,80,0.00,CLR,,0.00,0.0,WeatherDisplay:10.37,2013-02-21 03:56:00,
2013-02-20 22:01:00,18.8,13.7,30.42,ENE,76,0.0,0.0,80,0.00,CLR,,0.00,0.0,WeatherDisplay:10.37,2013-02-21 04:01:00,
2013-02-20 22:06:00,21.5,15.1,30.40,NNE,22,0.0,0.0,76,0.00,CLR,,0.00,0.0,WeatherDisplay:10.37,2013-02-21 04:06:00,
2013-02-20 22:11:00,21.5,15.1,30.40,NNE,22,0.0,0.0,76,0.00,CLR,,0.00,0.0,WeatherDisplay:10.37,2013-02-21 04:11:00,
2013-02-20 22:16:00,18.5,13.4,30.43,ENE,76,0.0,0.0,80,0.00,CLR,,0.00,0.0,WeatherDisplay:10.37,2013-02-21 04:16:00,
2013-02-20 22:21:00,18.6,13.5,30.43,ENE,75,0.0,0.0,80,0.00,CLR,,0.00,0.0,WeatherDisplay:10.37,2013-02-21 04:21:00,
2013-02-20 22:26:00,18.4,13.5,30.42,ENE,76,0.0,0.0,81,0.00,CLR,,0.00,0.0,WeatherDisplay:10.37,2013-02-21 04:26:00,
2013-02-20 22:31:00,18.4,13.5,30.42,ENE,76,3.5,3.5,81,0.00,CLR,,0.00,0.0,WeatherDisplay:10.37,2013-02-21 04:31:00,
2013-02-20 22:36:00,18.4,13.5,30.42,ENE,75,0.0,0.0,81,0.00,CLR,,0.00,0.0,WeatherDisplay:10.37,2013-02-21 04:36:00,
2013-02-20 22:41:00,18.3,13.4,30.42,ENE,75,3.5,3.5,81,0.00,CLR,,0.00,0.0,WeatherDisplay:10.37,2013-02-21 04:41:00,
2013-02-20 22:46:00,18.3,13.4,30.42,ENE,75,3.5,3.5,81,0.00,CLR,,0.00,0.0,WeatherDisplay:10.37,2013-02-21 04:46:00,
2013-02-20 22:51:00,18.6,13.5,30.43,ENE,75,0.0,0.0,80,0.00,CLR,,0.00,0.0,WeatherDisplay:10.37,2013-02-21 04:51:00,
2013-02-20 22:56:00,18.2,13.3,30.42,ENE,75,0.0,0.0,81,0.00,CLR,,0.00,0.0,WeatherDisplay:10.37,2013-02-21 04:56:00,
2013-02-20 23:00:00,18.2,13.3,30.42,ENE,75,0.0,0.0,81,0.00,CLR,,0.00,0.0,WeatherDisplay:10.37,2013-02-21 05:00:00,
2013-02-20 23:05:00,18.6,13.5,30.43,ENE,75,0.0,0.0,80,0.00,CLR,,0.00,0.0,WeatherDisplay:10.37,2013-02-21 05:05:00,
2013-02-20 23:10:00,18.1,13.5,30.42,ENE,75,0.0,0.0,82,0.00,CLR,,0.00,0.0,WeatherDisplay:10.37,2013-02-21 05:10:00,
2013-02-20 23:15:00,18.6,13.5,30.43,ENE,75,0.0,0.0,80,0.00,CLR,,0.00,0.0,WeatherDisplay:10.37,2013-02-21 05:15:00,
2013-02-20 23:20:00,17.9,13.3,30.42,ENE,75,0.0,0.0,82,0.00,CLR,,0.00,0.0,WeatherDisplay:10.37,2013-02-21 05:20:00,
2013-02-20 23:25:00,18.6,13.5,30.43,ENE,75,0.0,0.0,80,0.00,CLR,,0.00,0.0,WeatherDisplay:10.37,2013-02-21 05:25:00,
2013-02-20 23:30:00,18.6,13.5,30.43,ENE,75,0.0,0.0,80,0.00,CLR,,0.00,0.0,WeatherDisplay:10.37,2013-02-21 05:30:00,
2013-02-20 23:35:00,17.7,12.9,30.42,ENE,75,0.0,0.0,81,0.00,CLR,,0.00,0.0,WeatherDisplay:10.37,2013-02-21 05:35:00,
2013-02-20 23:40:00,17.6,12.8,30.42,ENE,75,0.0,0.0,81,0.00,CLR,,0.00,0.0,WeatherDisplay:10.37,2013-02-21 05:40:00,
2013-02-20 23:45:00,17.6,12.8,30.42,ENE,75,0.0,0.0,81,0.00,CLR,,0.00,0.0,WeatherDisplay:10.37,2013-02-21 05:45:00,
2013-02-20 23:50:00,17.6,12.8,30.42,ENE,75,0.0,0.0,81,0.00,CLR,,0.00,0.0,WeatherDisplay:10.37,2013-02-21 05:50:00,
2013-02-20 23:55:00,17.3,12.7,30.43,ENE,75,0.0,0.0,82,0.00,CLR,,0.00,0.0,WeatherDisplay:10.37,2013-02-21 05:55:00,